sensor_id;sensor_type;location;lat;lon;timestamp;temperature;humidity
20162;DHT22;51382;53.180;15.414;2023-02-23T00:13:11;0.40;99.90
20162;DHT22;51382;53.180;15.414;2023-02-23T00:28:22;0.50;99.90
20162;DHT22;51382;53.180;15.414;2023-02-23T00:43:34;0.50;99.90
20162;DHT22;51382;53.180;15.414;2023-02-23T00:58:49;0.70;99.90
20162;DHT22;51382;53.180;15.414;2023-02-23T01:14:02;0.80;99.90
20162;DHT22;51382;53.180;15.414;2023-02-23T01:29:14;0.90;99.90
20162;DHT22;51382;53.180;15.414;2023-02-23T02:00:11;0.90;99.90
20162;DHT22;51382;53.180;15.414;2023-02-23T02:15:28;1.00;99.90
20162;DHT22;51382;53.180;15.414;2023-02-23T02:46:38;1.00;99.90
20162;DHT22;51382;53.180;15.414;2023-02-23T03:01:58;1.00;99.90
20162;DHT22;51382;53.180;15.414;2023-02-23T03:17:29;1.00;99.90
20162;DHT22;51382;53.180;15.414;2023-02-23T03:33:05;1.00;99.90
20162;DHT22;51382;53.180;15.414;2023-02-23T03:48:37;1.00;99.90
20162;DHT22;51382;53.180;15.414;2023-02-23T04:04:09;0.70;99.90
20162;DHT22;51382;53.180;15.414;2023-02-23T04:19:38;0.80;99.90
20162;DHT22;51382;53.180;15.414;2023-02-23T04:34:54;0.70;99.90
20162;DHT22;51382;53.180;15.414;2023-02-23T04:50:06;0.70;99.90
20162;DHT22;51382;53.180;15.414;2023-02-23T05:05:20;0.50;99.90
20162;DHT22;51382;53.180;15.414;2023-02-23T05:20:26;0.30;99.90
20162;DHT22;51382;53.180;15.414;2023-02-23T05:35:39;0.00;99.90
20162;DHT22;51382;53.180;15.414;2023-02-23T05:50:50;0.00;99.90
20162;DHT22;51382;53.180;15.414;2023-02-23T06:06:02;0.00;99.90
20162;DHT22;51382;53.180;15.414;2023-02-23T06:21:08;0.10;99.90
20162;DHT22;51382;53.180;15.414;2023-02-23T06:36:20;0.10;99.90
20162;DHT22;51382;53.180;15.414;2023-02-23T06:51:26;0.30;99.90
20162;DHT22;51382;53.180;15.414;2023-02-23T07:06:37;0.50;99.90
20162;DHT22;51382;53.180;15.414;2023-02-23T07:21:49;0.80;99.90
20162;DHT22;51382;53.180;15.414;2023-02-23T07:37:00;1.40;99.90
20162;DHT22;51382;53.180;15.414;2023-02-23T07:52:12;1.40;99.90
20162;DHT22;51382;53.180;15.414;2023-02-23T08:07:27;4.70;99.90
20162;DHT22;51382;53.180;15.414;2023-02-23T08:22:40;5.10;99.90
20162;DHT22;51382;53.180;15.414;2023-02-23T08:37:51;4.80;99.90
20162;DHT22;51382;53.180;15.414;2023-02-23T08:53:04;5.60;99.90
20162;DHT22;51382;53.180;15.414;2023-02-23T09:08:17;7.10;99.90
20162;DHT22;51382;53.180;15.414;2023-02-23T09:23:29;3.70;99.90
20162;DHT22;51382;53.180;15.414;2023-02-23T09:38:40;3.70;99.90
20162;DHT22;51382;53.180;15.414;2023-02-23T09:53:52;4.40;99.90
20162;DHT22;51382;53.180;15.414;2023-02-23T10:09:09;5.20;99.90
20162;DHT22;51382;53.180;15.414;2023-02-23T10:24:31;5.80;99.90
20162;DHT22;51382;53.180;15.414;2023-02-23T10:39:48;6.80;99.90
20162;DHT22;51382;53.180;15.414;2023-02-23T10:55:01;6.60;99.90
20162;DHT22;51382;53.180;15.414;2023-02-23T11:10:25;5.90;99.90
20162;DHT22;51382;53.180;15.414;2023-02-23T11:25:39;6.20;99.90
20162;DHT22;51382;53.180;15.414;2023-02-23T11:40:58;6.00;99.90
20162;DHT22;51382;53.180;15.414;2023-02-23T11:56:12;6.90;99.90
20162;DHT22;51382;53.180;15.414;2023-02-23T12:11:33;7.10;99.90
20162;DHT22;51382;53.180;15.414;2023-02-23T12:26:50;7.30;99.90
20162;DHT22;51382;53.180;15.414;2023-02-23T12:42:06;7.40;99.90
20162;DHT22;51382;53.180;15.414;2023-02-23T12:57:29;7.60;99.90
20162;DHT22;51382;53.180;15.414;2023-02-23T13:12:47;7.70;99.90
20162;DHT22;51382;53.180;15.414;2023-02-23T13:28:02;7.70;99.90
20162;DHT22;51382;53.180;15.414;2023-02-23T13:43:16;7.60;99.90
20162;DHT22;51382;53.180;15.414;2023-02-23T13:58:31;7.90;99.90
20162;DHT22;51382;53.180;15.414;2023-02-23T14:13:56;7.80;99.90
20162;DHT22;51382;53.180;15.414;2023-02-23T14:29:16;7.60;99.90
20162;DHT22;51382;53.180;15.414;2023-02-23T14:44:33;7.60;99.90
20162;DHT22;51382;53.180;15.414;2023-02-23T14:59:52;7.50;99.90
20162;DHT22;51382;53.180;15.414;2023-02-23T15:15:06;7.60;99.90
20162;DHT22;51382;53.180;15.414;2023-02-23T15:30:26;7.20;99.90
20162;DHT22;51382;53.180;15.414;2023-02-23T15:45:40;7.30;99.90
20162;DHT22;51382;53.180;15.414;2023-02-23T16:00:58;7.30;99.90
20162;DHT22;51382;53.180;15.414;2023-02-23T16:16:14;7.10;99.90
20162;DHT22;51382;53.180;15.414;2023-02-23T16:31:40;7.10;99.90
20162;DHT22;51382;53.180;15.414;2023-02-23T16:46:57;7.40;99.90
20162;DHT22;51382;53.180;15.414;2023-02-23T17:02:33;7.30;99.90
20162;DHT22;51382;53.180;15.414;2023-02-23T17:17:48;7.60;99.90
20162;DHT22;51382;53.180;15.414;2023-02-23T17:33:06;7.60;99.90
20162;DHT22;51382;53.180;15.414;2023-02-23T17:48:18;7.40;99.90
20162;DHT22;51382;53.180;15.414;2023-02-23T18:03:35;7.30;99.90
20162;DHT22;51382;53.180;15.414;2023-02-23T18:18:46;7.30;99.90
20162;DHT22;51382;53.180;15.414;2023-02-23T18:33:58;7.30;99.90
20162;DHT22;51382;53.180;15.414;2023-02-23T18:49:13;6.80;99.90
20162;DHT22;51382;53.180;15.414;2023-02-23T19:04:27;6.50;99.90
20162;DHT22;51382;53.180;15.414;2023-02-23T19:19:38;6.50;99.90
20162;DHT22;51382;53.180;15.414;2023-02-23T19:34:53;6.80;99.90
20162;DHT22;51382;53.180;15.414;2023-02-23T19:50:04;6.10;99.90
20162;DHT22;51382;53.180;15.414;2023-02-23T20:05:17;6.20;99.90
20162;DHT22;51382;53.180;15.414;2023-02-23T20:20:29;6.30;99.90
20162;DHT22;51382;53.180;15.414;2023-02-23T20:35:40;6.20;99.90
20162;DHT22;51382;53.180;15.414;2023-02-23T20:50:53;6.50;99.90
20162;DHT22;51382;53.180;15.414;2023-02-23T21:06:05;6.70;99.90
20162;DHT22;51382;53.180;15.414;2023-02-23T21:21:11;6.70;99.90
20162;DHT22;51382;53.180;15.414;2023-02-23T21:36:23;6.80;99.90
20162;DHT22;51382;53.180;15.414;2023-02-23T21:51:34;7.00;99.90
20162;DHT22;51382;53.180;15.414;2023-02-23T22:06:46;7.00;99.90
20162;DHT22;51382;53.180;15.414;2023-02-23T22:21:57;7.30;99.90
20162;DHT22;51382;53.180;15.414;2023-02-23T22:37:11;7.20;99.90
20162;DHT22;51382;53.180;15.414;2023-02-23T22:52:22;7.20;99.90
20162;DHT22;51382;53.180;15.414;2023-02-23T23:07:36;7.10;99.90
20162;DHT22;51382;53.180;15.414;2023-02-23T23:22:47;7.10;99.90
20162;DHT22;51382;53.180;15.414;2023-02-23T23:37:59;6.70;99.90
20162;DHT22;51382;53.180;15.414;2023-02-23T23:53:10;6.70;99.90
